Gibson, Tennessee
Current Conditions -  °F | °C
As of 10:53 AM on Sunday 23 Nov 2014 (Local Time) from KMKL Reporting Station
Light Rain Light Rain  
Wind Chill: 58°   Ceiling: 800
Heat Index: 58°   Visibility: 6mi
Dew Point: 55°   Wind: 7mph
Humidity: 90%   Direction: 130°SE
Pressure: 29.64"   Gusts: NA
Location:  35.88°N, 88.85°W
Report Text: KMKL 231653Z 13006KT 6SM -RA BR BKN008 OVC015 14/13 A2964 RMK AO2 RAB03 CIG 005V013 SLP034 P0007 T01440128
Loading
Personal Weather Stations






























Interactive Weather Map New forecast layout! Learn more

10-Day Weather Forecast

Advertisements
Track Severe Weather on mobile